Time;durP1;ratioP1;P1;durP2;ratioP2;P2;SDS_P1;SDS_P2;PMS_P1;PMS_P2;Temp;Humidity;BMP_temperature;BMP_pressure;BME280_temperature;BME280_humidity;BME280_pressure;Samples;Min_cycle;Max_cycle;Signal;HPM_P1;HPM_P2
2023/07/16 00:03:33;;;;;;;5.35;3.47;;;;;24.20;96091.00;;;;8284748;28;20320;-65
2023/07/16 00:07:39;;;;;;;3.83;3.35;;;;;24.30;96096.00;;;;8274698;28;20218;-65
2023/07/16 00:11:42;;;;;;;3.20;2.78;;;;;24.30;96119.00;;;;8273065;28;20246;-66
2023/07/16 00:15:48;;;;;;;4.40;3.30;;;;;24.20;96139.00;;;;8286461;28;20240;-65
2023/07/16 00:19:53;;;;;;;5.88;3.25;;;;;24.00;96123.00;;;;8279509;28;20325;-65
2023/07/16 00:23:56;;;;;;;14.38;4.10;;;;;23.10;96151.00;;;;8288367;28;20236;-68
2023/07/16 00:27:59;;;;;;;8.63;4.60;;;;;22.20;96163.00;;;;8285784;28;20285;-68
2023/07/16 00:32:04;;;;;;;8.40;4.47;;;;;21.70;96078.00;;;;8282807;28;20209;-66
2023/07/16 00:36:09;;;;;;;8.30;4.80;;;;;21.20;96058.00;;;;8283950;28;20202;-63
2023/07/16 00:40:12;;;;;;;12.23;5.38;;;;;21.00;96057.00;;;;8288740;28;20700;-67
2023/07/16 00:44:15;;;;;;;6.60;4.70;;;;;20.70;96049.00;;;;8279152;28;20237;-64
2023/07/16 00:48:20;;;;;;;9.52;5.15;;;;;20.70;96070.00;;;;8283184;28;20880;-66
2023/07/16 00:52:32;;;;;;;6.85;5.05;;;;;20.70;96064.00;;;;8290315;28;20293;-65
2023/07/16 00:56:38;;;;;;;8.35;5.05;;;;;20.70;96070.00;;;;8286030;28;20807;-65
2023/07/16 01:00:42;;;;;;;6.38;5.28;;;;;20.80;96070.00;;;;8273761;28;20844;-67
2023/07/16 01:04:46;;;;;;;6.90;6.10;;;;;20.80;96101.00;;;;8284718;28;20230;-66
2023/07/16 01:08:58;;;;;;;6.72;4.95;;;;;20.80;96110.00;;;;8281742;28;20630;-69
2023/07/16 01:13:03;;;;;;;6.25;4.05;;;;;20.80;96167.00;;;;8290076;28;20226;-68
2023/07/16 01:17:06;;;;;;;8.52;4.00;;;;;20.70;96206.00;;;;8289362;28;20734;-67
2023/07/16 01:21:10;;;;;;;9.23;4.68;;;;;20.60;96272.00;;;;8281246;28;20209;-68
2023/07/16 01:25:40;;;;;;;6.30;4.57;;;;;20.60;96266.00;;;;8290786;28;20214;-67
2023/07/16 01:29:49;;;;;;;9.10;5.00;;;;;20.60;96288.00;;;;8283748;28;20318;-70
2023/07/16 01:33:55;;;;;;;8.77;5.03;;;;;20.60;96311.00;;;;8292588;28;20288;-69
2023/07/16 01:38:02;;;;;;;9.75;5.47;;;;;20.60;96313.00;;;;8287224;28;20252;-72
2023/07/16 01:42:08;;;;;;;8.43;5.28;;;;;20.60;96327.00;;;;8283955;28;20690;-70
2023/07/16 01:46:13;;;;;;;12.35;5.90;;;;;20.60;96297.00;;;;8293289;28;20302;-69
2023/07/16 01:50:16;;;;;;;8.45;6.25;;;;;20.60;96302.00;;;;8287601;28;20225;-72
2023/07/16 01:54:22;;;;;;;11.60;6.35;;;;;20.50;96303.00;;;;8286655;28;20202;-70
2023/07/16 01:58:25;;;;;;;10.02;5.80;;;;;20.50;96320.00;;;;8285411;28;20238;-70
2023/07/16 02:02:29;;;;;;;9.27;5.43;;;;;20.50;96322.00;;;;8290657;28;20313;-69
2023/07/16 02:06:33;;;;;;;9.25;5.35;;;;;20.50;96322.00;;;;8293811;28;20575;-70
2023/07/16 02:10:36;;;;;;;13.43;6.00;;;;;20.50;96329.00;;;;8288751;28;20318;-68
2023/07/16 02:14:39;;;;;;;10.38;5.97;;;;;20.50;96320.00;;;;8288203;28;20463;-68
2023/07/16 02:18:44;;;;;;;8.07;5.85;;;;;20.50;96331.00;;;;8289390;28;20230;-66
2023/07/16 02:22:48;;;;;;;8.18;6.00;;;;;20.50;96328.00;;;;8295361;28;20203;-68
2023/07/16 02:26:53;;;;;;;13.25;6.60;;;;;20.50;96316.00;;;;8291218;28;20599;-69
2023/07/16 02:30:56;;;;;;;9.38;6.20;;;;;20.50;96279.00;;;;8287313;28;20214;-70
2023/07/16 02:35:03;;;;;;;9.18;6.00;;;;;20.40;96296.00;;;;8287679;28;20210;-70
2023/07/16 02:39:06;;;;;;;11.90;6.65;;;;;20.40;96293.00;;;;8296725;28;20222;-70
2023/07/16 02:43:12;;;;;;;9.70;6.30;;;;;20.50;96308.00;;;;8280820;28;20256;-70
2023/07/16 02:47:15;;;;;;;9.43;6.40;;;;;20.40;96300.00;;;;8283615;28;20210;-70
2023/07/16 02:51:22;;;;;;;10.18;6.43;;;;;20.40;96301.00;;;;8283791;28;20261;-70
2023/07/16 02:55:27;;;;;;;5.78;5.20;;;;;20.40;96317.00;;;;8282339;28;20212;-73
2023/07/16 02:59:32;;;;;;;5.63;4.72;;;;;20.40;96332.00;;;;8296008;28;20283;-70
2023/07/16 03:03:36;;;;;;;6.57;4.88;;;;;20.30;96354.00;;;;8336852;23;20328;-69
2023/07/16 03:07:43;;;;;;;5.47;4.30;;;;;20.30;96375.00;;;;8267873;28;20210;-69
2023/07/16 03:11:47;;;;;;;8.75;4.63;;;;;20.30;96376.00;;;;8274670;28;20691;-68
2023/07/16 03:15:50;;;;;;;9.80;4.82;;;;;20.30;96389.00;;;;8278991;28;20285;-70
2023/07/16 03:19:53;;;;;;;7.45;4.30;;;;;20.30;96374.00;;;;8279675;28;20320;-69
2023/07/16 03:23:58;;;;;;;5.35;4.53;;;;;20.30;96359.00;;;;8282762;28;20271;-69
2023/07/16 03:28:03;;;;;;;5.28;4.05;;;;;20.30;96355.00;;;;8265133;28;20264;-68
2023/07/16 03:32:09;;;;;;;6.88;4.03;;;;;20.30;96354.00;;;;8268919;28;20745;-70
2023/07/16 03:36:13;;;;;;;6.15;4.13;;;;;20.30;96332.00;;;;8267948;28;20241;-68
2023/07/16 03:40:20;;;;;;;4.47;4.07;;;;;20.30;96327.00;;;;8275961;28;20237;-68
2023/07/16 03:44:26;;;;;;;3.38;3.08;;;;;20.30;96304.00;;;;8267988;28;20265;-69
2023/07/16 03:48:29;;;;;;;4.68;3.50;;;;;20.30;96300.00;;;;8274873;28;20559;-67
2023/07/16 03:52:33;;;;;;;5.22;3.95;;;;;20.30;96295.00;;;;8263832;28;20210;-69
2023/07/16 03:56:37;;;;;;;4.30;3.55;;;;;20.30;96298.00;;;;8263918;28;20242;-70
2023/07/16 04:00:44;;;;;;;3.10;2.80;;;;;20.20;96307.00;;;;8267574;28;20284;-71
2023/07/16 04:04:47;;;;;;;3.28;2.97;;;;;20.20;96322.00;;;;8241305;28;20746;-70
2023/07/16 04:08:50;;;;;;;4.22;3.70;;;;;20.30;96330.00;;;;8231785;28;20295;-71
2023/07/16 04:12:57;;;;;;;6.78;4.47;;;;;20.30;96329.00;;;;8231670;28;20285;-70
2023/07/16 04:17:02;;;;;;;11.30;4.30;;;;;20.30;96334.00;;;;8247417;28;20291;-71
2023/07/16 04:21:05;;;;;;;7.97;4.80;;;;;20.30;96359.00;;;;8239383;28;20238;-70
2023/07/16 04:25:11;;;;;;;7.32;4.63;;;;;20.30;96380.00;;;;8242317;28;20231;-71
2023/07/16 04:29:15;;;;;;;5.90;3.70;;;;;20.30;96380.00;;;;8236341;28;20399;-71
2023/07/16 04:33:19;;;;;;;3.97;3.60;;;;;20.20;96395.00;;;;8238363;28;20299;-71
2023/07/16 04:37:22;;;;;;;3.65;3.33;;;;;20.20;96407.00;;;;8234755;28;20207;-71
2023/07/16 04:41:28;;;;;;;5.55;4.95;;;;;20.10;96409.00;;;;8237428;28;20239;-70
2023/07/16 04:45:33;;;;;;;3.45;2.95;;;;;20.10;96418.00;;;;8238748;28;20656;-69
2023/07/16 04:49:36;;;;;;;9.32;3.50;;;;;20.10;96428.00;;;;8242233;28;20876;-70
2023/07/16 04:53:39;;;;;;;3.97;3.42;;;;;20.10;96437.00;;;;8248617;28;20294;-70
2023/07/16 04:57:43;;;;;;;5.32;4.00;;;;;20.10;96447.00;;;;8241296;28;20290;-70
2023/07/16 05:01:47;;;;;;;8.10;3.30;;;;;20.10;96448.00;;;;8243088;28;20260;-70
2023/07/16 05:05:51;;;;;;;5.07;3.38;;;;;20.00;96455.00;;;;8244531;28;20218;-72
2023/07/16 05:09:59;;;;;;;3.65;3.10;;;;;20.00;96448.00;;;;8242434;28;20207;-70
2023/07/16 05:14:02;;;;;;;2.88;2.67;;;;;20.00;96455.00;;;;8243951;28;20203;-69
2023/07/16 05:18:09;;;;;;;3.70;2.97;;;;;19.90;96448.00;;;;8230217;28;20214;-72
2023/07/16 05:22:12;;;;;;;5.85;2.80;;;;;20.00;96439.00;;;;8243750;28;20234;-72
2023/07/16 05:26:19;;;;;;;3.03;2.60;;;;;20.00;96455.00;;;;8245813;28;20235;-72
2023/07/16 05:30:26;;;;;;;8.00;2.72;;;;;19.90;96477.00;;;;8246440;28;20213;-72
2023/07/16 05:34:30;;;;;;;6.53;2.70;;;;;19.90;96483.00;;;;8240016;28;20207;-71
2023/07/16 05:38:33;;;;;;;4.05;2.90;;;;;20.00;96473.00;;;;8251323;28;20575;-73
2023/07/16 05:42:38;;;;;;;3.40;3.10;;;;;20.00;96466.00;;;;8248257;28;20325;-72
2023/07/16 05:46:51;;;;;;;6.68;3.53;;;;;20.10;96475.00;;;;8232957;28;20241;-72
2023/07/16 05:50:56;;;;;;;9.77;3.20;;;;;20.20;96478.00;;;;8236230;28;20199;-74
2023/07/16 05:54:59;;;;;;;4.07;2.63;;;;;20.20;96483.00;;;;8233153;28;20226;-72
2023/07/16 05:59:03;;;;;;;5.95;2.47;;;;;20.30;96497.00;;;;8239787;28;20210;-72
2023/07/16 06:03:08;;;;;;;5.50;2.45;;;;;20.40;96488.00;;;;8236955;28;20839;-72
2023/07/16 06:07:16;;;;;;;8.23;2.47;;;;;20.40;96501.00;;;;8239587;28;20301;-71
2023/07/16 06:11:25;;;;;;;3.05;2.50;;;;;20.40;96502.00;;;;8244607;28;20217;-70
2023/07/16 06:15:30;;;;;;;4.65;2.20;;;;;20.40;96500.00;;;;8239508;28;20295;-70
2023/07/16 06:19:38;;;;;;;3.97;2.15;;;;;20.50;96527.00;;;;8247041;28;21027;-71
2023/07/16 06:23:43;;;;;;;2.53;1.85;;;;;20.60;96540.00;;;;8238574;28;20294;-70
2023/07/16 06:27:49;;;;;;;4.00;2.00;;;;;20.50;96551.00;;;;8237058;28;20674;-69
2023/07/16 06:31:59;;;;;;;2.83;2.35;;;;;20.50;96545.00;;;;8233842;28;20214;-70
2023/07/16 06:36:02;;;;;;;2.85;1.98;;;;;20.50;96543.00;;;;8242453;28;20593;-69
2023/07/16 06:40:11;;;;;;;6.15;2.22;;;;;20.60;96552.00;;;;8239606;28;20219;-68
2023/07/16 06:44:14;;;;;;;4.60;2.10;;;;;20.60;96556.00;;;;8231107;28;20242;-70
2023/07/16 06:48:17;;;;;;;3.58;2.20;;;;;20.50;96557.00;;;;8237936;28;20294;-68
2023/07/16 06:52:27;;;;;;;5.35;2.03;;;;;20.60;96568.00;;;;8248364;28;20620;-69
2023/07/16 06:56:33;;;;;;;3.58;1.88;;;;;20.70;96570.00;;;;8238413;28;20214;-69
2023/07/16 07:00:36;;;;;;;2.25;1.88;;;;;20.80;96572.00;;;;8244870;28;20258;-69
2023/07/16 07:04:39;;;;;;;6.32;2.15;;;;;20.80;96566.00;;;;8248617;28;20226;-68
2023/07/16 07:08:42;;;;;;;4.28;1.90;;;;;20.90;96562.00;;;;8245830;28;20732;-67
2023/07/16 07:12:47;;;;;;;4.22;2.00;;;;;20.80;96564.00;;;;8241437;28;20222;-68
2023/07/16 07:16:54;;;;;;;5.68;2.05;;;;;20.80;96581.00;;;;8233276;28;20207;-68
2023/07/16 07:20:58;;;;;;;5.45;1.95;;;;;20.90;96570.00;;;;8243839;28;20251;-68
2023/07/16 07:25:02;;;;;;;3.47;2.13;;;;;21.20;96566.00;;;;8244422;28;20631;-67
2023/07/16 07:29:08;;;;;;;3.47;2.00;;;;;21.50;96566.00;;;;8232798;28;20265;-68
2023/07/16 07:33:11;;;;;;;2.92;1.90;;;;;21.70;96562.00;;;;8233828;28;20206;-68
2023/07/16 07:37:18;;;;;;;6.30;1.98;;;;;21.60;96573.00;;;;8243191;28;20297;-68
2023/07/16 07:41:23;;;;;;;4.15;1.95;;;;;21.50;96580.00;;;;8239520;28;20663;-69
2023/07/16 07:45:29;;;;;;;5.95;2.28;;;;;21.60;96581.00;;;;8234853;28;20235;-68
2023/07/16 07:49:33;;;;;;;4.63;2.00;;;;;21.70;96569.00;;;;8246349;28;20660;-67
2023/07/16 07:53:36;;;;;;;5.07;2.38;;;;;21.80;96581.00;;;;8246264;28;20235;-68
2023/07/16 07:57:39;;;;;;;4.22;2.03;;;;;21.90;96570.00;;;;8241887;28;20222;-68
2023/07/16 08:01:49;;;;;;;3.83;1.85;;;;;21.90;96567.00;;;;8220299;28;20269;-68
2023/07/16 08:05:54;;;;;;;6.38;2.20;;;;;22.00;96573.00;;;;8237400;28;20214;-67
2023/07/16 08:09:57;;;;;;;3.88;2.20;;;;;22.20;96581.00;;;;8246710;28;20211;-68
2023/07/16 08:14:00;;;;;;;2.67;2.05;;;;;22.40;96578.00;;;;8243547;28;20743;-67
2023/07/16 08:18:06;;;;;;;4.38;1.98;;;;;22.50;96581.00;;;;8239449;28;20211;-67
2023/07/16 08:22:11;;;;;;;3.78;2.03;;;;;22.40;96586.00;;;;8235414;28;20266;-66
2023/07/16 08:26:18;;;;;;;4.22;2.00;;;;;22.40;96588.00;;;;8244937;28;20703;-67
2023/07/16 08:30:21;;;;;;;3.28;1.90;;;;;22.30;96580.00;;;;8233290;28;20214;-66
2023/07/16 08:34:26;;;;;;;3.25;2.10;;;;;22.20;96586.00;;;;8237270;28;20211;-70
2023/07/16 08:38:33;;;;;;;3.30;1.90;;;;;22.30;96579.00;;;;8238911;28;20631;-67
2023/07/16 08:42:40;;;;;;;3.50;1.90;;;;;22.30;96583.00;;;;8227780;28;20278;-66
2023/07/16 08:46:44;;;;;;;3.40;2.10;;;;;22.20;96586.00;;;;8228375;28;20638;-67
2023/07/16 08:50:49;;;;;;;3.38;2.10;;;;;22.40;96563.00;;;;8238578;28;20261;-66
2023/07/16 08:54:57;;;;;;;4.97;2.00;;;;;22.50;96552.00;;;;8242131;28;20967;-68
2023/07/16 08:59:03;;;;;;;6.30;2.17;;;;;22.20;96551.00;;;;8249750;28;20238;-68
2023/07/16 09:03:06;;;;;;;5.85;2.33;;;;;21.80;96570.00;;;;8248399;28;20800;-70
2023/07/16 09:07:11;;;;;;;5.45;2.08;;;;;21.70;96584.00;;;;8242258;28;20199;-70
2023/07/16 09:11:15;;;;;;;3.80;1.83;;;;;21.80;96578.00;;;;8226751;28;20204;-68
2023/07/16 09:15:23;;;;;;;2.47;1.85;;;;;22.20;96587.00;;;;8246666;28;20338;-68
2023/07/16 09:19:26;;;;;;;3.97;2.28;;;;;22.50;96584.00;;;;8236971;28;20238;-67
2023/07/16 09:23:34;;;;;;;6.05;2.33;;;;;22.60;96584.00;;;;8237481;28;20305;-67
2023/07/16 09:27:39;;;;;;;4.75;2.42;;;;;22.40;96584.00;;;;8250551;28;20235;-67
2023/07/16 09:31:53;;;;;;;5.10;2.30;;;;;22.30;96593.00;;;;8247317;28;20867;-67
2023/07/16 09:35:56;;;;;;;4.10;2.10;;;;;22.30;96590.00;;;;8247515;28;20210;-67
2023/07/16 09:40:03;;;;;;;3.80;2.30;;;;;22.60;96599.00;;;;8246588;28;20203;-68
2023/07/16 09:44:09;;;;;;;4.03;2.50;;;;;22.80;96594.00;;;;8247917;28;20231;-67
2023/07/16 09:48:15;;;;;;;5.15;2.10;;;;;23.40;96589.00;;;;8246777;28;20611;-67
2023/07/16 09:52:20;;;;;;;7.25;1.95;;;;;24.00;96597.00;;;;8237069;28;20894;-67
2023/07/16 09:56:31;;;;;;;5.20;2.28;;;;;24.70;96592.00;;;;8238100;28;20911;-67
2023/07/16 10:00:36;;;;;;;7.55;2.10;;;;;25.40;96593.00;;;;8242804;28;20222;-68
2023/07/16 10:04:43;;;;;;;6.40;2.10;;;;;26.50;96591.00;;;;8244944;28;20278;-68
2023/07/16 10:08:52;;;;;;;5.85;2.38;;;;;27.00;96590.00;;;;8242120;28;20210;-68
2023/07/16 10:13:02;;;;;;;8.13;3.13;;;;;26.80;96586.00;;;;8242146;28;20290;-68
2023/07/16 10:17:15;;;;;;;5.32;2.33;;;;;26.50;96583.00;;;;8242628;28;20792;-68
2023/07/16 10:21:24;;;;;;;1.90;1.80;;;;;26.30;96592.00;;;;8251237;28;20265;-67
2023/07/16 10:25:29;;;;;;;4.03;1.90;;;;;25.90;96594.00;;;;8246016;28;20210;-66
2023/07/16 10:29:37;;;;;;;5.32;2.55;;;;;25.60;96592.00;;;;8243537;28;20215;-67
2023/07/16 10:33:41;;;;;;;2.47;2.22;;;;;25.60;96593.00;;;;8232760;28;20239;-67
2023/07/16 10:37:44;;;;;;;5.38;2.22;;;;;25.90;96583.00;;;;8242914;28;20218;-67
2023/07/16 10:41:47;;;;;;;5.13;2.58;;;;;26.30;96580.00;;;;8243995;28;20662;-69
2023/07/16 10:45:53;;;;;;;5.72;2.10;;;;;26.40;96571.00;;;;8242085;28;20238;-67
2023/07/16 10:49:56;;;;;;;4.88;2.10;;;;;26.80;96573.00;;;;8245913;28;20771;-69
2023/07/16 10:54:05;;;;;;;4.60;2.38;;;;;26.90;96563.00;;;;8242825;28;20218;-67
2023/07/16 10:58:11;;;;;;;3.38;2.25;;;;;26.70;96564.00;;;;8244659;28;20267;-66
2023/07/16 11:02:17;;;;;;;4.40;2.35;;;;;26.30;96572.00;;;;8248962;28;20695;-67
2023/07/16 11:06:21;;;;;;;5.60;2.40;;;;;26.60;96581.00;;;;8258643;28;20700;-67
2023/07/16 11:10:25;;;;;;;4.60;2.38;;;;;27.00;96585.00;;;;8251595;28;20233;-67
2023/07/16 11:14:29;;;;;;;3.63;2.08;;;;;26.90;96570.00;;;;8236712;28;20633;-67
2023/07/16 11:18:33;;;;;;;4.15;2.00;;;;;27.20;96577.00;;;;8230439;28;20285;-67
2023/07/16 11:22:39;;;;;;;3.85;2.45;;;;;27.20;96583.00;;;;8241331;28;20240;-68
2023/07/16 11:26:51;;;;;;;5.55;2.35;;;;;27.20;96578.00;;;;8248921;28;20246;-68
2023/07/16 11:30:54;;;;;;;3.85;2.67;;;;;27.80;96589.00;;;;8244292;28;20298;-67
2023/07/16 11:35:03;;;;;;;5.63;2.70;;;;;28.40;96562.00;;;;8244564;28;20214;-68
2023/07/16 11:39:07;;;;;;;5.30;2.80;;;;;28.90;96574.00;;;;8222730;28;20239;-66
2023/07/16 11:43:14;;;;;;;2.70;2.40;;;;;29.50;96574.00;;;;8225722;28;20245;-66
2023/07/16 11:47:19;;;;;;;5.20;2.15;;;;;30.90;96570.00;;;;8238541;28;20206;-68
2023/07/16 11:51:24;;;;;;;3.10;2.58;;;;;30.90;96570.00;;;;8238647;28;20814;-66
2023/07/16 11:55:29;;;;;;;4.43;2.70;;;;;31.20;96558.00;;;;8233964;28;20239;-68
2023/07/16 11:59:32;;;;;;;2.50;2.25;;;;;32.10;96553.00;;;;8245191;28;20286;-67
2023/07/16 12:03:35;;;;;;;2.90;2.00;;;;;32.80;96557.00;;;;8245783;28;20564;-67
2023/07/16 12:07:40;;;;;;;3.70;2.53;;;;;33.00;96559.00;;;;8234792;28;20203;-67
2023/07/16 12:11:44;;;;;;;3.05;2.40;;;;;32.60;96556.00;;;;8235568;28;20242;-69
2023/07/16 12:15:48;;;;;;;6.05;2.75;;;;;31.60;96558.00;;;;8237879;28;20243;-66
2023/07/16 12:19:51;;;;;;;2.33;2.20;;;;;31.20;96551.00;;;;8244068;28;20649;-66
2023/07/16 12:23:56;;;;;;;3.13;2.58;;;;;31.20;96548.00;;;;8240411;28;20301;-68
2023/07/16 12:28:01;;;;;;;2.83;2.63;;;;;31.70;96541.00;;;;8243981;28;20286;-66
2023/07/16 12:32:08;;;;;;;3.10;2.50;;;;;31.50;96543.00;;;;8221533;28;20215;-67
2023/07/16 12:36:16;;;;;;;5.10;2.75;;;;;31.80;96538.00;;;;8237860;28;20199;-66
2023/07/16 12:40:20;;;;;;;5.15;2.38;;;;;32.60;96538.00;;;;8240331;28;20796;-66
2023/07/16 12:44:24;;;;;;;2.60;2.35;;;;;32.10;96539.00;;;;8231830;28;20271;-70
2023/07/16 12:48:31;;;;;;;3.60;2.65;;;;;31.40;96543.00;;;;8241596;28;20703;-66
2023/07/16 12:52:35;;;;;;;2.53;2.30;;;;;31.10;96543.00;;;;8238108;28;20206;-68
2023/07/16 12:56:39;;;;;;;4.10;2.33;;;;;30.90;96531.00;;;;8237609;28;20215;-67
2023/07/16 13:00:42;;;;;;;2.65;2.45;;;;;30.80;96534.00;;;;8234597;28;20294;-66
2023/07/16 13:04:49;;;;;;;3.05;2.15;;;;;31.00;96529.00;;;;8242397;28;20246;-66
2023/07/16 13:08:52;;;;;;;5.20;2.30;;;;;31.80;96531.00;;;;8233904;28;20229;-67
2023/07/16 13:12:58;;;;;;;2.28;2.00;;;;;32.00;96535.00;;;;8234641;28;20271;-68
2023/07/16 13:17:05;;;;;;;2.60;2.40;;;;;32.70;96532.00;;;;8240919;28;20248;-67
2023/07/16 13:21:11;;;;;;;4.60;2.30;;;;;32.80;96522.00;;;;8246015;28;20207;-67
2023/07/16 13:25:15;;;;;;;2.60;2.40;;;;;32.70;96522.00;;;;8245981;28;20317;-67
2023/07/16 13:29:24;;;;;;;5.18;2.45;;;;;32.60;96504.00;;;;8240172;28;20714;-68
2023/07/16 13:33:30;;;;;;;2.20;2.00;;;;;33.20;96501.00;;;;8245748;28;20728;-67
2023/07/16 13:37:35;;;;;;;2.22;2.03;;;;;33.40;96510.00;;;;8248709;28;20214;-66
2023/07/16 13:41:40;;;;;;;4.72;2.15;;;;;33.60;96509.00;;;;8237693;28;20369;-67
2023/07/16 13:45:47;;;;;;;2.47;2.00;;;;;34.40;96503.00;;;;8241545;28;20203;-67
2023/07/16 13:49:50;;;;;;;2.13;1.90;;;;;34.90;96510.00;;;;8243914;28;20322;-66
2023/07/16 13:53:55;;;;;;;2.22;2.03;;;;;34.90;96507.00;;;;8247244;28;20952;-67
2023/07/16 13:57:58;;;;;;;2.60;2.00;;;;;34.90;96512.00;;;;8236825;28;20219;-67
2023/07/16 14:02:05;;;;;;;3.92;2.00;;;;;34.40;96508.00;;;;8239785;28;20581;-66
2023/07/16 14:06:08;;;;;;;2.88;2.33;;;;;34.00;96505.00;;;;8233581;28;20206;-67
2023/07/16 14:10:15;;;;;;;2.65;2.13;;;;;33.60;96498.00;;;;8240855;28;20208;-66
2023/07/16 14:14:19;;;;;;;3.58;2.22;;;;;33.90;96495.00;;;;8240045;28;20307;-68
2023/07/16 14:18:23;;;;;;;2.40;1.92;;;;;34.50;96500.00;;;;8240121;28;20676;-68
2023/07/16 14:22:29;;;;;;;1.90;1.80;;;;;35.10;96496.00;;;;8246528;28;20230;-68
2023/07/16 14:26:33;;;;;;;3.22;2.13;;;;;35.20;96504.00;;;;8242954;28;20258;-68
2023/07/16 14:30:36;;;;;;;2.30;1.90;;;;;34.40;96502.00;;;;8236901;28;20290;-69
2023/07/16 14:34:41;;;;;;;2.05;1.85;;;;;33.70;96490.00;;;;8241707;28;20207;-67
2023/07/16 14:38:47;;;;;;;1.92;1.83;;;;;33.30;96493.00;;;;8244567;28;20249;-67
2023/07/16 14:42:58;;;;;;;2.08;1.98;;;;;33.10;96490.00;;;;8243140;28;20318;-64
2023/07/16 14:47:03;;;;;;;5.68;2.20;;;;;33.10;96496.00;;;;8244560;28;20751;-63
2023/07/16 14:51:09;;;;;;;2.70;2.10;;;;;33.00;96474.00;;;;8242498;28;20231;-63
2023/07/16 14:55:13;;;;;;;2.35;2.15;;;;;33.40;96471.00;;;;8246416;28;20205;-63
2023/07/16 14:59:16;;;;;;;2.33;2.13;;;;;32.20;96490.00;;;;8234934;28;20317;-63
2023/07/16 15:03:21;;;;;;;2.20;1.92;;;;;31.70;96486.00;;;;8246702;28;20246;-64
2023/07/16 15:07:27;;;;;;;4.80;1.95;;;;;31.40;96479.00;;;;8240874;28;20203;-64
2023/07/16 15:11:33;;;;;;;4.93;2.17;;;;;31.90;96464.00;;;;8227321;28;20238;-64
2023/07/16 15:15:38;;;;;;;3.20;2.25;;;;;33.10;96462.00;;;;8238852;28;20199;-64
2023/07/16 15:19:41;;;;;;;2.75;2.00;;;;;33.30;96464.00;;;;8247269;28;20199;-64
2023/07/16 15:23:46;;;;;;;4.43;2.10;;;;;33.40;96467.00;;;;8240489;28;20719;-66
2023/07/16 15:27:53;;;;;;;2.13;2.00;;;;;33.10;96465.00;;;;8234976;28;20199;-66
2023/07/16 15:31:56;;;;;;;2.97;2.15;;;;;32.90;96467.00;;;;8245435;28;20290;-66
2023/07/16 15:36:03;;;;;;;2.70;1.92;;;;;32.80;96461.00;;;;8250069;28;20199;-68
2023/07/16 15:40:17;;;;;;;1.73;1.63;;;;;33.70;96465.00;;;;8237331;28;20227;-69
2023/07/16 15:44:20;;;;;;;2.20;2.10;;;;;34.00;96464.00;;;;8237341;28;20231;-69
2023/07/16 15:48:23;;;;;;;2.78;1.83;;;;;34.20;96460.00;;;;8238895;28;20313;-67
2023/07/16 15:52:27;;;;;;;3.53;2.00;;;;;34.20;96455.00;;;;8238362;28;20273;-67
2023/07/16 15:56:34;;;;;;;2.33;2.00;;;;;33.80;96451.00;;;;8254630;28;20204;-67
2023/07/16 16:00:37;;;;;;;4.20;2.33;;;;;34.00;96451.00;;;;8233413;28;20221;-67
2023/07/16 16:04:42;;;;;;;3.72;2.20;;;;;34.10;96451.00;;;;8245360;28;20291;-68
2023/07/16 16:08:46;;;;;;;9.68;2.20;;;;;34.10;96452.00;;;;8234972;28;20262;-67
2023/07/16 16:12:51;;;;;;;2.10;2.00;;;;;33.70;96456.00;;;;8229691;28;20231;-63
2023/07/16 16:16:57;;;;;;;4.85;2.13;;;;;33.20;96465.00;;;;8240086;28;20218;-65
2023/07/16 16:21:11;;;;;;;2.72;2.47;;;;;33.10;96462.00;;;;8244473;28;20234;-64
2023/07/16 16:25:24;;;;;;;4.25;2.30;;;;;33.20;96463.00;;;;8242051;28;20328;-65
2023/07/16 16:29:30;;;;;;;2.70;2.50;;;;;33.40;96453.00;;;;8236044;28;20211;-64
2023/07/16 16:33:34;;;;;;;2.45;2.10;;;;;33.30;96457.00;;;;8233187;28;20269;-64
2023/07/16 16:37:40;;;;;;;3.40;2.13;;;;;33.30;96459.00;;;;8246695;28;20209;-65
2023/07/16 16:41:49;;;;;;;2.72;2.17;;;;;33.60;96449.00;;;;8241053;28;20215;-65
2023/07/16 16:45:56;;;;;;;3.92;2.40;;;;;33.80;96449.00;;;;8229451;28;20313;-65
2023/07/16 16:49:59;;;;;;;4.63;2.35;;;;;33.70;96452.00;;;;8240068;28;20286;-65
2023/07/16 16:54:03;;;;;;;2.22;2.00;;;;;34.00;96451.00;;;;8240495;28;20203;-65
2023/07/16 16:58:06;;;;;;;4.15;2.50;;;;;33.90;96456.00;;;;8243511;28;21072;-66
2023/07/16 17:02:12;;;;;;;2.60;2.30;;;;;34.10;96461.00;;;;8238285;28;20202;-65
2023/07/16 17:06:15;;;;;;;2.28;2.10;;;;;34.20;96459.00;;;;8243761;28;20231;-64
2023/07/16 17:10:19;;;;;;;4.45;2.47;;;;;33.80;96456.00;;;;8240494;28;20286;-64
2023/07/16 17:14:24;;;;;;;3.25;2.17;;;;;33.40;96456.00;;;;8237116;28;20295;-65
2023/07/16 17:18:29;;;;;;;3.15;2.38;;;;;32.80;96449.00;;;;8241402;28;20239;-65
2023/07/16 17:22:37;;;;;;;2.92;2.63;;;;;32.50;96443.00;;;;8242166;28;20277;-65
2023/07/16 17:26:45;;;;;;;5.47;2.10;;;;;32.60;96451.00;;;;8238314;28;20274;-66
2023/07/16 17:30:48;;;;;;;2.55;2.20;;;;;32.50;96443.00;;;;8243119;28;20263;-66
2023/07/16 17:34:53;;;;;;;3.05;2.35;;;;;32.90;96447.00;;;;8246066;28;20298;-66
2023/07/16 17:38:59;;;;;;;3.53;2.63;;;;;32.90;96444.00;;;;8237970;28;20679;-67
2023/07/16 17:43:02;;;;;;;3.45;2.20;;;;;33.30;96448.00;;;;8237564;28;20310;-67
2023/07/16 17:47:08;;;;;;;2.40;2.25;;;;;34.00;96442.00;;;;8245180;28;20317;-68
2023/07/16 17:51:16;;;;;;;2.33;2.10;;;;;34.10;96452.00;;;;8248021;28;20616;-68
2023/07/16 17:55:19;;;;;;;2.40;2.20;;;;;33.90;96461.00;;;;8239669;28;20203;-68
2023/07/16 17:59:23;;;;;;;2.40;2.30;;;;;33.80;96468.00;;;;8242160;28;20206;-67
2023/07/16 18:03:34;;;;;;;2.58;2.28;;;;;33.10;96468.00;;;;8250724;28;20240;-67
2023/07/16 18:07:54;;;;;;;6.00;2.67;;;;;31.90;96476.00;;;;8250829;28;20206;-67
2023/07/16 18:12:10;;;;;;;2.60;2.40;;;;;31.10;96470.00;;;;8239684;28;20241;-66
2023/07/16 18:16:13;;;;;;;3.00;2.40;;;;;30.50;96464.00;;;;8242187;28;20271;-66
2023/07/16 18:20:20;;;;;;;3.38;2.38;;;;;30.00;96465.00;;;;8243834;28;21026;-66
2023/07/16 18:24:25;;;;;;;3.67;2.45;;;;;29.60;96469.00;;;;8242513;28;20254;-68
2023/07/16 18:28:30;;;;;;;2.72;2.50;;;;;29.10;96463.00;;;;8247025;28;20676;-66
2023/07/16 18:32:33;;;;;;;2.40;2.30;;;;;28.70;96465.00;;;;8238284;28;20249;-66
2023/07/16 18:36:37;;;;;;;2.83;2.45;;;;;28.40;96469.00;;;;8234703;28;20213;-67
2023/07/16 18:40:43;;;;;;;4.38;2.80;;;;;28.10;96465.00;;;;8229031;28;20362;-67
2023/07/16 18:44:50;;;;;;;5.97;2.92;;;;;27.80;96476.00;;;;8235222;28;20230;-67
2023/07/16 18:48:53;;;;;;;3.20;2.90;;;;;27.60;96471.00;;;;8236024;28;20199;-67
2023/07/16 18:52:58;;;;;;;2.90;2.70;;;;;27.30;96471.00;;;;8237483;28;20698;-67
2023/07/16 18:57:05;;;;;;;2.88;2.60;;;;;26.90;96464.00;;;;8228725;28;20211;-66
2023/07/16 19:01:08;;;;;;;2.60;2.40;;;;;26.50;96469.00;;;;8236512;28;20215;-68
2023/07/16 19:05:11;;;;;;;3.75;2.42;;;;;26.20;96465.00;;;;8241417;28;20226;-66
2023/07/16 19:09:14;;;;;;;4.82;2.95;;;;;25.90;96467.00;;;;8241426;28;20294;-67
2023/07/16 19:13:19;;;;;;;3.35;3.05;;;;;25.60;96473.00;;;;8245883;28;20298;-68
2023/07/16 19:17:25;;;;;;;4.63;2.88;;;;;25.10;96470.00;;;;8233695;28;20243;-66
2023/07/16 19:21:30;;;;;;;3.00;2.72;;;;;24.80;96473.00;;;;8249535;28;20296;-67
2023/07/16 19:25:35;;;;;;;5.70;2.72;;;;;24.50;96474.00;;;;8247138;28;20343;-66
2023/07/16 19:29:41;;;;;;;4.22;2.70;;;;;24.10;96483.00;;;;8242729;28;20207;-66
2023/07/16 19:33:46;;;;;;;5.18;2.90;;;;;23.90;96477.00;;;;8231683;28;20249;-67
2023/07/16 19:37:54;;;;;;;2.92;2.45;;;;;23.60;96488.00;;;;8237625;28;20211;-66
2023/07/16 19:41:59;;;;;;;3.42;2.78;;;;;23.40;96479.00;;;;8239567;28;20202;-67
2023/07/16 19:46:07;;;;;;;7.32;3.03;;;;;23.20;96473.00;;;;8236112;28;20226;-65
2023/07/16 19:50:12;;;;;;;6.03;2.70;;;;;23.00;96467.00;;;;8232426;28;20209;-66
2023/07/16 19:54:15;;;;;;;8.70;3.00;;;;;22.90;96483.00;;;;8236612;28;20870;-66
2023/07/16 19:58:20;;;;;;;6.20;3.10;;;;;22.80;96478.00;;;;8247561;28;20310;-67
2023/07/16 20:02:25;;;;;;;3.22;2.92;;;;;22.80;96487.00;;;;8225369;28;20231;-68
2023/07/16 20:06:30;;;;;;;4.30;2.70;;;;;22.80;96477.00;;;;8233008;28;20231;-67
2023/07/16 20:10:34;;;;;;;7.78;3.30;;;;;22.60;96480.00;;;;8233615;28;20217;-67
2023/07/16 20:14:39;;;;;;;4.72;2.85;;;;;22.50;96473.00;;;;8231775;28;20220;-67
2023/07/16 20:18:43;;;;;;;3.38;3.00;;;;;22.30;96487.00;;;;8227909;28;20207;-66
2023/07/16 20:22:51;;;;;;;7.32;4.07;;;;;22.30;96494.00;;;;8231576;28;20286;-66
2023/07/16 20:26:56;;;;;;;3.42;3.03;;;;;22.30;96505.00;;;;8239208;28;20881;-65